Monte Alto, Texas
Current Conditions -  °F | °C
As of 3:15 AM on Thursday 27 Nov 2014 (Local Time) from KT65 Reporting Station
Clear Clear  
Wind Chill: 49°   Ceiling: Unl
Heat Index: 49°   Visibility: 7mi
Dew Point: 47°   Wind: 0mph
Humidity: 91%   Direction: NA
Pressure: 30.32"   Gusts: NA
Location:  26.3131°N, 97.9381°W
Report Text: KT65 270915Z AUTO 00000KT 7SM CLR 10/08 A3032 RMK AO2 T00960082
Loading
Personal Weather Stations






























Interactive Weather Map New forecast layout! Learn more

10-Day Weather Forecast

Advertisements
Track Severe Weather on mobile